Time;durP1;ratioP1;P1;durP2;ratioP2;P2;SDS_P1;SDS_P2;PMS_P1;PMS_P2;Temp;Humidity;BMP_temperature;BMP_pressure;BME280_temperature;BME280_humidity;BME280_pressure;Samples;Min_cycle;Max_cycle;Signal;HPM_P1;HPM_P2
2022/04/20 01:46:40;;;;;;;6.40;3.80;;;6.90;99.90;;;;;;6241243;22;20056;-93
2022/04/20 02:15:00;;;;;;;5.80;3.63;;;6.50;99.90;;;;;;6243192;22;20024;-90
2022/04/20 02:17:25;;;;;;;8.37;3.90;;;6.40;99.90;;;;;;6275726;22;20081;-93
2022/04/20 02:19:56;;;;;;;6.60;4.07;;;6.30;99.90;;;;;;6276590;22;20035;-94
2022/04/20 02:22:22;;;;;;;6.95;4.00;;;6.20;99.90;;;;;;6278114;22;20095;-95
2022/04/20 02:24:47;;;;;;;7.07;3.83;;;6.20;99.90;;;;;;6280224;22;20016;-90
2022/04/20 02:27:14;;;;;;;6.40;3.97;;;6.10;99.90;;;;;;6280697;22;20043;-93
2022/04/20 02:29:39;;;;;;;7.65;4.25;;;6.10;99.90;;;;;;6279126;22;20008;-90
2022/04/20 02:32:07;;;;;;;7.17;4.33;;;6.10;99.90;;;;;;6277951;22;20480;-90
2022/04/20 02:34:32;;;;;;;7.05;4.45;;;6.10;99.90;;;;;;6277978;22;20015;-87
2022/04/20 02:36:59;;;;;;;8.50;4.03;;;6.00;99.90;;;;;;6250826;22;20024;-93
2022/04/20 02:39:25;;;;;;;7.65;4.22;;;6.00;99.90;;;;;;6276547;22;20504;-92
2022/04/20 02:41:50;;;;;;;7.45;4.32;;;6.00;99.90;;;;;;6276626;22;20062;-96
2022/04/20 02:44:16;;;;;;;6.83;4.00;;;6.10;99.90;;;;;;6277880;22;20020;-92
2022/04/20 02:46:42;;;;;;;8.27;4.77;;;6.10;99.90;;;;;;6276563;22;20023;-91
2022/04/20 02:49:08;;;;;;;6.43;4.38;;;6.00;99.90;;;;;;6276352;22;20016;-93
2022/04/20 02:51:34;;;;;;;9.70;4.20;;;6.10;99.90;;;;;;6277733;22;20479;-91
2022/04/20 02:53:59;;;;;;;7.53;4.20;;;6.10;99.90;;;;;;6277599;22;20016;-88
2022/04/20 02:56:25;;;;;;;6.93;4.20;;;6.10;99.90;;;;;;6276290;22;20016;-87
2022/04/20 02:58:50;;;;;;;7.93;4.57;;;6.10;99.90;;;;;;6276746;22;20015;-95
2022/04/20 03:01:16;;;;;;;7.83;4.27;;;6.10;99.90;;;;;;6276602;22;20027;-91
2022/04/20 03:03:42;;;;;;;7.35;4.50;;;6.10;99.90;;;;;;6276121;22;20457;-92
2022/04/20 03:06:08;;;;;;;8.63;4.90;;;6.10;99.90;;;;;;6250615;22;20026;-90
2022/04/20 03:08:34;;;;;;;8.33;4.60;;;6.20;99.90;;;;;;6276568;22;20015;-93
2022/04/20 03:10:59;;;;;;;7.30;4.53;;;6.20;99.90;;;;;;6277816;22;20051;-95
2022/04/20 03:13:26;;;;;;;6.80;4.13;;;6.30;99.90;;;;;;6250775;22;20547;-90
2022/04/20 03:15:51;;;;;;;6.10;4.10;;;6.30;99.90;;;;;;6277024;22;20073;-86
2022/04/20 03:18:17;;;;;;;7.37;4.50;;;6.30;99.90;;;;;;6276092;22;20020;-92
2022/04/20 03:20:43;;;;;;;7.30;4.40;;;6.30;99.90;;;;;;6277423;22;20026;-94
2022/04/20 03:23:08;;;;;;;8.27;4.00;;;6.30;99.90;;;;;;6276130;22;20443;-91
2022/04/20 03:25:53;;;;;;;7.87;4.27;;;6.30;99.90;;;;;;6275825;22;20011;-93
2022/04/20 03:28:19;;;;;;;7.07;3.83;;;6.40;99.90;;;;;;6250282;22;20020;-94
2022/04/20 03:30:45;;;;;;;7.20;4.03;;;6.30;99.90;;;;;;6276340;22;20022;-95
2022/04/20 03:33:11;;;;;;;5.87;3.70;;;6.40;99.90;;;;;;6276295;22;20095;-96
2022/04/20 03:35:38;;;;;;;6.97;3.95;;;6.30;99.90;;;;;;6275771;22;20125;-94
2022/04/20 03:38:08;;;;;;;8.18;4.40;;;6.30;99.90;;;;;;6250887;22;20047;-93
2022/04/20 03:40:34;;;;;;;6.25;3.85;;;6.30;99.90;;;;;;6276237;22;20095;-96
2022/04/20 03:43:00;;;;;;;6.97;4.05;;;6.30;99.90;;;;;;6275912;22;20027;-89
2022/04/20 03:45:26;;;;;;;7.37;4.30;;;6.30;99.90;;;;;;6275959;22;20012;-94
2022/04/20 03:47:51;;;;;;;6.50;4.07;;;6.30;99.90;;;;;;6277112;22;20019;-94
2022/04/20 03:50:18;;;;;;;8.83;4.63;;;6.20;99.90;;;;;;6250094;22;20022;-92
2022/04/20 03:52:43;;;;;;;7.10;4.00;;;6.20;99.90;;;;;;6250033;22;20016;-94
2022/04/20 03:55:09;;;;;;;7.73;3.90;;;6.20;99.90;;;;;;6275851;22;20105;-89
2022/04/20 03:57:35;;;;;;;10.95;4.30;;;6.20;99.90;;;;;;6277214;22;20095;-96
2022/04/20 04:00:03;;;;;;;6.20;4.07;;;6.20;99.90;;;;;;6250521;22;20047;-95
2022/04/20 04:02:29;;;;;;;6.63;4.13;;;6.10;99.90;;;;;;6275930;22;20018;-95
2022/04/20 04:04:55;;;;;;;6.73;3.90;;;6.10;99.90;;;;;;6275814;22;20055;-96
2022/04/20 04:07:21;;;;;;;8.35;4.60;;;6.10;99.90;;;;;;6277185;22;20378;-94
2022/04/20 04:09:46;;;;;;;9.10;3.87;;;6.10;99.90;;;;;;6277292;22;20022;-94
2022/04/20 04:12:12;;;;;;;8.87;4.20;;;6.00;99.90;;;;;;6251351;22;20067;-90
2022/04/20 04:14:39;;;;;;;6.23;3.73;;;6.00;99.90;;;;;;6251085;22;20030;-95
2022/04/20 04:17:06;;;;;;;8.18;4.60;;;6.00;99.90;;;;;;6284246;22;20031;-90
2022/04/20 04:19:33;;;;;;;8.77;4.20;;;6.00;99.90;;;;;;6283460;22;20008;-96
2022/04/20 04:22:00;;;;;;;5.82;3.78;;;6.00;99.90;;;;;;6282752;22;20018;-95
2022/04/20 04:24:35;;;;;;;6.80;3.53;;;6.00;99.90;;;;;;6283639;22;20022;-93
2022/04/20 04:27:03;;;;;;;6.30;4.22;;;6.00;99.90;;;;;;6251008;22;20019;-93
2022/04/20 04:29:29;;;;;;;8.27;3.90;;;6.00;99.90;;;;;;6250467;22;20020;-94
2022/04/20 04:31:55;;;;;;;6.95;4.07;;;6.00;99.90;;;;;;6250407;22;20051;-94
2022/04/20 04:34:21;;;;;;;8.35;4.10;;;6.10;99.90;;;;;;6275512;22;20336;-92
2022/04/20 04:36:47;;;;;;;8.00;4.07;;;6.10;99.90;;;;;;6250022;22;20026;-91
2022/04/20 04:39:17;;;;;;;9.47;4.00;;;6.10;99.90;;;;;;6250364;22;20051;-95
2022/04/20 04:41:45;;;;;;;6.80;3.78;;;6.10;99.90;;;;;;6275532;22;20053;-94
2022/04/20 04:44:10;;;;;;;5.93;3.45;;;6.00;99.90;;;;;;6277180;22;20206;-92
2022/04/20 04:49:20;;;;;;;6.68;4.00;;;5.90;99.90;;;;;;6275538;22;20022;-94
2022/04/20 04:51:46;;;;;;;9.43;3.80;;;5.90;99.90;;;;;;6278739;22;20016;-92
2022/04/20 04:54:12;;;;;;;7.20;3.67;;;5.80;99.90;;;;;;6277746;22;20400;-93
2022/04/20 04:56:38;;;;;;;7.27;3.77;;;5.80;99.90;;;;;;6251377;22;20019;-94
2022/04/20 04:59:03;;;;;;;7.93;3.77;;;5.70;99.90;;;;;;6251626;22;20020;-93
2022/04/20 05:01:29;;;;;;;7.37;4.40;;;5.70;99.90;;;;;;6279033;22;20012;-94
2022/04/20 05:03:55;;;;;;;7.37;4.07;;;5.70;99.90;;;;;;6251655;22;20016;-94
2022/04/20 05:06:21;;;;;;;8.07;4.30;;;5.70;99.90;;;;;;6251992;22;20016;-96
2022/04/20 05:08:50;;;;;;;9.67;4.07;;;5.70;99.90;;;;;;6277852;22;20007;-94
2022/04/20 05:11:16;;;;;;;8.55;4.20;;;5.80;99.90;;;;;;6252063;22;20027;-92
2022/04/20 05:13:42;;;;;;;9.37;4.27;;;6.00;99.90;;;;;;6279474;22;20023;-95
2022/04/20 05:16:09;;;;;;;7.13;4.33;;;6.10;99.90;;;;;;6277082;22;20274;-92
2022/04/20 05:18:34;;;;;;;9.43;4.38;;;6.30;99.90;;;;;;6277537;22;20353;-93
2022/04/20 05:21:00;;;;;;;6.83;4.30;;;6.50;99.90;;;;;;6252102;22;20016;-95
2022/04/20 05:23:26;;;;;;;7.20;3.90;;;6.50;99.90;;;;;;6277993;22;20475;-92
2022/04/20 05:25:52;;;;;;;5.80;3.57;;;6.60;99.90;;;;;;6277483;22;20008;-92
2022/04/20 05:28:18;;;;;;;6.93;3.80;;;6.60;99.90;;;;;;6278576;22;20069;-93
2022/04/20 05:30:43;;;;;;;6.30;3.67;;;6.60;99.90;;;;;;6251033;22;20099;-87
2022/04/20 05:33:09;;;;;;;5.33;3.33;;;6.80;99.90;;;;;;6276115;22;20076;-87
2022/04/20 05:35:35;;;;;;;7.40;3.77;;;7.00;99.90;;;;;;6277076;22;20016;-95
2022/04/20 05:43:29;;;;;;;8.38;3.55;;;7.40;99.90;;;;;;6278463;22;20023;-95
2022/04/20 05:45:55;;;;;;;6.60;3.50;;;7.40;99.90;;;;;;6278013;22;20014;-96
2022/04/20 05:48:21;;;;;;;7.27;4.00;;;7.40;99.90;;;;;;6277913;22;20019;-91
2022/04/20 05:50:46;;;;;;;6.03;4.07;;;7.40;99.90;;;;;;6251460;22;20026;-96
2022/04/20 05:53:12;;;;;;;6.93;4.33;;;7.40;99.90;;;;;;6278517;22;20027;-87
2022/04/20 05:55:43;;;;;;;9.33;4.33;;;7.30;99.90;;;;;;6285158;22;20300;-85
2022/04/20 05:58:12;;;;;;;7.85;4.35;;;7.30;99.90;;;;;;6292504;22;20028;-87
2022/04/20 06:00:39;;;;;;;6.63;4.18;;;7.30;99.90;;;;;;6296114;22;20023;-89
2022/04/20 06:03:07;;;;;;;6.72;4.10;;;7.30;99.90;;;;;;6288040;22;20079;-87
2022/04/20 06:05:33;;;;;;;10.03;4.27;;;7.40;99.90;;;;;;6257117;22;20015;-96
2022/04/20 06:07:59;;;;;;;9.45;4.18;;;7.60;99.90;;;;;;6282760;22;20015;-89
2022/04/20 06:10:32;;;;;;;9.10;4.40;;;7.80;99.90;;;;;;6280263;22;20020;-87
2022/04/20 06:12:59;;;;;;;8.02;4.45;;;8.20;99.90;;;;;;6258918;22;20468;-87
2022/04/20 06:15:25;;;;;;;9.40;4.72;;;8.40;99.90;;;;;;6258763;22;20031;-92
2022/04/20 06:17:50;;;;;;;7.97;4.90;;;8.50;99.90;;;;;;6285425;22;20019;-94
2022/04/20 06:20:18;;;;;;;11.43;4.60;;;8.50;99.90;;;;;;6280338;22;20020;-96
2022/04/20 06:22:43;;;;;;;8.20;4.35;;;8.50;99.90;;;;;;6253937;22;20023;-95
2022/04/20 06:25:09;;;;;;;8.10;4.27;;;8.60;99.90;;;;;;6276623;22;20020;-88
2022/04/20 06:27:35;;;;;;;7.67;4.40;;;8.70;99.90;;;;;;6278716;22;20015;-92
2022/04/20 06:30:01;;;;;;;9.50;4.63;;;8.90;99.90;;;;;;6278086;22;20019;-87
2022/04/20 06:32:27;;;;;;;8.27;4.40;;;9.20;99.90;;;;;;6278047;22;20042;-94
2022/04/20 06:34:54;;;;;;;6.97;4.05;;;9.80;99.90;;;;;;6277384;22;20055;-93
2022/04/20 06:37:23;;;;;;;7.43;4.50;;;10.50;99.90;;;;;;6279761;22;20022;-93
2022/04/20 06:39:49;;;;;;;6.35;3.55;;;11.60;99.90;;;;;;6256365;22;20027;-90
2022/04/20 06:42:15;;;;;;;;;;;12.60;99.90;;;;;;6279756;22;20015;-90
2022/04/20 06:44:41;;;;;;;6.95;4.05;;;13.40;99.90;;;;;;6278432;22;19930;-90
2022/04/20 06:47:07;;;;;;;6.57;3.53;;;14.10;99.60;;;;;;6275801;22;20016;-89
2022/04/20 06:49:33;;;;;;;5.47;3.60;;;14.70;97.20;;;;;;6276180;22;20016;-93
2022/04/20 07:00:12;;;;;;;6.97;3.83;;;15.30;88.40;;;;;;6278701;22;20057;-88
2022/04/20 07:02:38;;;;;;;5.95;3.58;;;15.10;87.50;;;;;;6251462;22;20026;-94
2022/04/20 07:05:05;;;;;;;7.83;4.00;;;14.70;87.60;;;;;;6276600;22;20103;-83
2022/04/20 07:07:31;;;;;;;6.30;3.70;;;14.40;89.00;;;;;;6276127;22;20014;-84
2022/04/20 07:09:56;;;;;;;8.57;3.72;;;14.30;89.40;;;;;;6252019;22;20043;-91
2022/04/20 07:12:22;;;;;;;5.15;3.38;;;14.20;88.10;;;;;;6284370;22;20071;-88
2022/04/20 07:14:48;;;;;;;9.00;3.90;;;13.90;87.00;;;;;;6294412;22;20004;-86
2022/04/20 07:17:15;;;;;;;6.80;3.63;;;13.80;85.80;;;;;;6277284;22;20055;-94
2022/04/20 07:19:40;;;;;;;6.53;3.38;;;13.90;84.60;;;;;;6252111;22;20251;-88
2022/04/20 07:22:06;;;;;;;5.43;3.00;;;13.90;83.10;;;;;;6250341;22;20054;-86
2022/04/20 07:24:41;;;;;;;8.53;3.67;;;13.80;81.40;;;;;;6275449;22;20094;-85
2022/04/20 07:27:06;;;;;;;6.95;3.70;;;13.50;82.50;;;;;;6277009;22;20015;-90
2022/04/20 07:29:32;;;;;;;8.17;3.87;;;13.40;82.60;;;;;;6277572;22;20479;-91
2022/04/20 07:31:58;;;;;;;6.47;3.45;;;13.30;82.60;;;;;;6253956;22;20011;-86
2022/04/20 07:34:23;;;;;;;6.00;3.67;;;13.20;83.30;;;;;;6275908;22;20023;-86
2022/04/20 07:36:49;;;;;;;6.57;3.73;;;13.20;83.10;;;;;;6251796;22;20022;-84
2022/04/20 07:39:15;;;;;;;7.88;3.70;;;13.00;82.80;;;;;;6249730;22;20039;-86
2022/04/20 07:41:42;;;;;;;6.00;3.15;;;12.70;83.20;;;;;;6275418;22;20023;-87
2022/04/20 07:44:08;;;;;;;;;;;12.60;84.50;;;;;;6249979;22;20016;-87
2022/04/20 07:46:33;;;;;;;5.60;3.00;;;12.40;84.90;;;;;;6249666;22;20352;-88
2022/04/20 07:50:17;;;;;;;4.77;2.63;;;12.20;85.10;;;;;;6248436;22;20011;-86
2022/04/20 07:51:45;;;;;;;5.75;3.03;;;12.10;84.50;;;;;;6273406;22;20026;-85
2022/04/20 07:54:10;;;;;;;7.03;2.93;;;12.00;85.10;;;;;;6275127;22;20087;-89
2022/04/20 07:56:38;;;;;;;5.97;2.50;;;12.00;86.00;;;;;;6246643;22;20413;-87
2022/04/20 07:59:04;;;;;;;4.20;2.15;;;12.00;85.60;;;;;;6273350;22;20253;-87
2022/04/20 08:01:30;;;;;;;5.77;2.40;;;12.10;84.60;;;;;;6273855;22;20055;-91
2022/04/20 08:03:55;;;;;;;5.90;2.20;;;12.10;82.50;;;;;;6249473;22;20015;-89
2022/04/20 08:06:21;;;;;;;4.53;1.70;;;12.10;80.40;;;;;;6249780;22;20016;-91
2022/04/20 08:08:47;;;;;;;3.67;1.73;;;12.00;78.80;;;;;;6276858;22;20441;-88
2022/04/20 08:11:12;;;;;;;7.47;2.37;;;12.10;78.10;;;;;;6276703;22;20110;-86
2022/04/20 08:16:22;;;;;;;4.35;1.80;;;12.10;77.40;;;;;;6276186;22;20030;-85
2022/04/20 08:19:07;;;;;;;4.43;1.80;;;12.10;77.10;;;;;;6276702;22;20341;-90
2022/04/20 08:21:36;;;;;;;3.70;1.60;;;12.20;76.10;;;;;;6249129;22;20016;-87
2022/04/20 08:24:03;;;;;;;3.33;1.42;;;12.20;75.30;;;;;;6250522;22;20102;-92
2022/04/20 08:26:31;;;;;;;4.57;1.83;;;12.20;73.80;;;;;;6251803;22;20057;-91
2022/04/20 08:29:00;;;;;;;2.88;1.55;;;12.30;73.80;;;;;;6252733;22;20027;-88
2022/04/20 08:31:41;;;;;;;;;;;;;;;;;;;;;
2022/04/20 08:34:10;;;;;;;5.63;1.60;;;12.30;73.10;;;;;;6276812;22;20504;-88
2022/04/20 08:36:36;;;;;;;3.95;1.38;;;12.40;72.80;;;;;;6251395;22;20016;-95
2022/04/20 08:39:04;;;;;;;3.77;1.20;;;12.50;72.20;;;;;;6252368;22;20341;-87
2022/04/20 08:41:38;;;;;;;2.55;1.40;;;12.50;70.60;;;;;;6253315;22;20023;-88
2022/04/20 08:44:07;;;;;;;3.63;1.50;;;12.50;67.70;;;;;;6251904;22;20081;-86
2022/04/20 08:46:39;;;;;;;2.50;1.20;;;12.60;67.50;;;;;;6251984;22;20023;-96
2022/04/20 08:49:04;;;;;;;2.35;1.05;;;12.60;65.50;;;;;;6253226;22;20022;-89
2022/04/20 08:54:29;;;;;;;3.30;1.38;;;12.50;65.20;;;;;;6277143;22;20020;-89
2022/04/20 08:59:42;;;;;;;2.95;1.48;;;12.60;65.90;;;;;;6277451;22;20026;-88
2022/04/20 09:02:12;;;;;;;3.97;1.60;;;12.70;65.50;;;;;;6276898;22;20015;-88
2022/04/20 09:04:38;;;;;;;3.30;1.13;;;12.80;66.30;;;;;;6251311;22;20449;-89
2022/04/20 09:07:10;;;;;;;2.20;1.05;;;12.80;65.90;;;;;;6277229;22;20023;-89
2022/04/20 09:09:36;;;;;;;2.00;1.00;;;12.90;64.40;;;;;;6252668;22;20019;-90
2022/04/20 09:12:14;;;;;;;3.28;1.27;;;12.90;64.80;;;;;;6252689;22;20024;-90
2022/04/20 09:14:41;;;;;;;2.67;1.40;;;13.00;63.50;;;;;;6277769;22;20349;-90
2022/04/20 09:17:13;;;;;;;4.28;1.38;;;13.00;64.70;;;;;;6251550;22;20016;-86
2022/04/20 09:19:43;;;;;;;3.92;1.33;;;13.00;64.80;;;;;;6276378;22;20080;-88
2022/04/20 09:22:23;;;;;;;3.35;1.35;;;13.10;64.40;;;;;;6251154;22;20016;-88
2022/04/20 09:25:06;;;;;;;2.92;1.35;;;13.10;63.60;;;;;;6278117;22;20058;-89
2022/04/20 09:27:42;;;;;;;4.22;1.90;;;13.20;62.70;;;;;;6251195;22;20016;-91
2022/04/20 09:30:42;;;;;;;3.60;1.42;;;13.20;64.20;;;;;;6250182;22;20472;-94
2022/04/20 10:04:18;;;;;;;2.47;1.17;;;13.90;61.20;;;;;;6238582;22;20437;-85
2022/04/20 10:06:44;;;;;;;4.40;1.57;;;13.90;60.90;;;;;;6248013;22;20078;-90
2022/04/20 10:09:13;;;;;;;4.53;1.63;;;13.90;60.90;;;;;;6195634;23;20554;-90
2022/04/20 10:11:39;;;;;;;7.05;1.70;;;14.00;61.80;;;;;;6195551;23;20016;-89
2022/04/20 10:16:54;;;;;;;3.72;1.30;;;14.10;60.80;;;;;;6220352;23;20063;-89
2022/04/20 10:19:28;;;;;;;3.22;1.30;;;14.20;62.30;;;;;;6220708;23;20475;-89
2022/04/20 10:21:55;;;;;;;3.30;1.20;;;14.30;61.20;;;;;;6195553;23;20026;-90
2022/04/20 10:24:41;;;;;;;3.47;1.70;;;14.50;60.70;;;;;;6195560;23;20016;-92
2022/04/20 10:27:37;;;;;;;3.92;1.30;;;14.60;59.50;;;;;;6195779;23;20346;-92
2022/04/20 10:30:33;;;;;;;2.97;1.30;;;14.60;59.10;;;;;;6140568;23;20486;-90
2022/04/20 10:33:20;;;;;;;3.80;1.20;;;14.70;60.30;;;;;;6144748;23;20043;-92
2022/04/20 10:36:02;;;;;;;3.22;1.40;;;14.80;58.70;;;;;;6195596;23;20067;-91
2022/04/20 10:38:31;;;;;;;3.05;0.98;;;14.90;59.20;;;;;;6195584;23;20016;-90
2022/04/20 10:41:09;;;;;;;3.28;1.30;;;15.00;59.00;;;;;;6220702;23;20418;-89
2022/04/20 10:43:39;;;;;;;4.50;1.30;;;15.10;59.20;;;;;;6195420;23;20024;-89
2022/04/20 10:46:11;;;;;;;4.30;1.20;;;15.30;59.60;;;;;;6195345;23;20119;-88
2022/04/20 10:48:49;;;;;;;3.30;1.27;;;15.40;59.60;;;;;;6195269;23;20020;-87
2022/04/20 10:51:22;;;;;;;3.13;1.23;;;15.50;60.20;;;;;;6194865;23;20447;-91
2022/04/20 10:53:49;;;;;;;4.03;1.50;;;15.60;59.30;;;;;;6194972;23;20020;-88
2022/04/20 10:56:17;;;;;;;3.05;1.10;;;15.70;58.50;;;;;;6194436;23;20075;-90
2022/04/20 10:59:07;;;;;;;2.42;1.02;;;15.80;58.00;;;;;;6220008;23;20020;-89
2022/04/20 11:02:01;;;;;;;2.60;1.00;;;15.80;59.30;;;;;;6180266;23;20062;-91
2022/04/20 11:07:18;;;;;;;4.68;0.80;;;15.90;58.00;;;;;;6247995;22;20028;-89
2022/04/20 11:10:21;;;;;;;2.20;0.82;;;15.90;58.10;;;;;;6220808;22;20024;-90
2022/04/20 11:21:04;;;;;;;2.05;0.70;;;16.10;57.80;;;;;;6249667;22;20026;-88
2022/04/20 11:23:59;;;;;;;2.33;0.80;;;16.10;57.40;;;;;;6224827;22;20062;-89
2022/04/20 11:26:28;;;;;;;2.50;0.80;;;16.20;57.30;;;;;;6249027;22;20012;-87
2022/04/20 12:29:14;;;;;;;3.25;1.00;;;17.20;56.20;;;;;;6271946;22;20023;-87
2022/04/20 12:32:05;;;;;;;4.25;1.08;;;17.20;56.60;;;;;;6224825;22;20397;-88
2022/04/20 12:34:37;;;;;;;2.03;1.02;;;17.30;56.80;;;;;;6231802;22;20015;-91
2022/04/20 12:37:14;;;;;;;4.80;1.20;;;17.40;56.20;;;;;;6226262;22;20019;-88
2022/04/20 12:42:30;;;;;;;2.88;1.00;;;17.30;55.50;;;;;;6278846;22;20034;-88
2022/04/20 12:45:18;;;;;;;6.40;1.30;;;17.30;56.10;;;;;;6224593;22;20023;-88
2022/04/20 13:23:14;;;;;;;7.35;3.35;;;17.30;63.20;;;;;;6247143;22;20355;-87
2022/04/20 13:28:25;;;;;;;6.10;2.92;;;17.30;64.10;;;;;;6220845;23;20027;-88
2022/04/20 13:30:57;;;;;;;6.72;3.50;;;17.30;63.20;;;;;;6195561;23;20118;-90
2022/04/20 13:33:23;;;;;;;7.75;3.40;;;17.30;63.70;;;;;;6220553;23;20024;-89
2022/04/20 13:36:48;;;;;;;9.05;3.67;;;17.30;63.80;;;;;;6195550;23;20023;-93
2022/04/20 13:49:35;;;;;;;6.90;3.92;;;17.00;63.60;;;;;;6247284;22;20070;-88
2022/04/20 14:08:24;;;;;;;8.20;4.22;;;16.60;65.70;;;;;;6274125;22;20035;-95
2022/04/20 14:14:40;;;;;;;9.48;4.45;;;16.60;66.10;;;;;;6250905;22;20031;-92
2022/04/20 14:17:32;;;;;;;8.45;4.32;;;16.60;66.30;;;;;;6224923;22;20038;-91
2022/04/20 14:20:04;;;;;;;8.82;4.57;;;16.60;65.70;;;;;;6251464;22;20050;-92
2022/04/20 14:22:30;;;;;;;8.15;4.43;;;16.50;65.90;;;;;;6225224;22;20102;-92
2022/04/20 14:33:28;;;;;;;8.63;5.00;;;16.30;66.80;;;;;;6129044;23;20056;-90
2022/04/20 14:35:54;;;;;;;;;;;16.20;67.50;;;;;;6128466;23;20039;-93
2022/04/20 14:38:20;;;;;;;7.72;5.13;;;16.20;67.40;;;;;;6105088;23;19923;-93
2022/04/20 14:40:49;;;;;;;7.65;5.25;;;16.10;68.10;;;;;;6130112;23;20036;-91
2022/04/20 14:43:33;;;;;;;10.18;5.03;;;16.10;68.20;;;;;;6204519;22;20050;-96
2022/04/20 14:45:58;;;;;;;6.97;5.03;;;16.10;67.70;;;;;;6224992;22;20012;-88
2022/04/20 14:48:25;;;;;;;7.00;5.63;;;16.00;67.50;;;;;;6225171;22;20016;-90
2022/04/20 14:56:04;;;;;;;8.98;5.20;;;16.00;68.50;;;;;;6246599;22;20020;-91
2022/04/20 14:58:30;;;;;;;8.13;5.20;;;16.00;68.10;;;;;;6194999;22;20361;-91
2022/04/20 15:00:55;;;;;;;9.10;4.88;;;16.00;68.60;;;;;;6194613;22;20023;-89
2022/04/20 15:03:21;;;;;;;6.70;5.00;;;15.90;69.30;;;;;;6194309;22;20429;-88
2022/04/20 15:05:47;;;;;;;7.27;5.60;;;15.80;70.20;;;;;;6194561;23;20796;-88
2022/04/20 15:08:13;;;;;;;8.82;5.40;;;15.90;70.70;;;;;;6220231;23;20255;-88
2022/04/20 15:10:39;;;;;;;8.93;5.45;;;15.90;70.10;;;;;;6194694;23;20016;-89
2022/04/20 15:13:05;;;;;;;8.38;5.28;;;15.90;70.00;;;;;;6195355;23;20012;-92
2022/04/20 15:15:31;;;;;;;11.35;5.10;;;15.80;69.40;;;;;;6193160;23;20027;-89
2022/04/20 15:17:57;;;;;;;7.85;5.55;;;15.70;69.30;;;;;;6197136;23;20345;-88
2022/04/20 15:20:23;;;;;;;7.10;4.97;;;15.60;69.80;;;;;;6197712;23;20016;-87
2022/04/20 15:22:49;;;;;;;9.52;5.70;;;15.60;70.20;;;;;;6193763;23;20074;-88
2022/04/20 15:25:15;;;;;;;7.43;4.78;;;15.60;70.40;;;;;;6204027;22;20446;-89
2022/04/20 15:27:44;;;;;;;8.00;5.32;;;15.50;70.60;;;;;;6227615;22;20012;-90
2022/04/20 15:30:23;;;;;;;7.40;4.93;;;15.60;71.50;;;;;;6196728;22;20016;-91
2022/04/20 16:01:58;;;;;;;8.82;5.00;;;15.00;75.70;;;;;;6247879;22;20020;-89
2022/04/20 16:04:33;;;;;;;7.20;4.82;;;15.00;75.70;;;;;;6223841;22;20027;-91
2022/04/20 16:07:03;;;;;;;8.50;5.05;;;15.00;75.80;;;;;;6224402;22;20120;-91
2022/04/20 16:09:30;;;;;;;7.15;4.70;;;14.90;75.80;;;;;;6224372;22;20019;-90
2022/04/20 16:11:56;;;;;;;7.15;4.93;;;14.90;76.00;;;;;;6224574;22;20019;-91
2022/04/20 16:14:23;;;;;;;9.07;4.88;;;14.90;76.00;;;;;;6224671;22;20027;-89
2022/04/20 16:16:51;;;;;;;7.45;4.45;;;14.80;76.10;;;;;;6223295;22;20023;-92
2022/04/20 16:19:24;;;;;;;9.18;5.00;;;14.80;76.50;;;;;;6223737;22;20054;-91
2022/04/20 16:22:00;;;;;;;9.35;4.90;;;14.80;76.40;;;;;;6224445;22;20457;-93
2022/04/20 16:24:28;;;;;;;7.25;4.63;;;14.70;76.30;;;;;;6224608;22;20052;-92
2022/04/20 16:26:55;;;;;;;6.45;4.45;;;14.60;76.20;;;;;;6249233;22;20385;-90
2022/04/20 16:29:21;;;;;;;7.88;4.68;;;14.60;76.50;;;;;;6224520;22;20065;-89
2022/04/20 16:31:47;;;;;;;7.40;4.82;;;14.50;76.60;;;;;;6224533;22;20047;-90
2022/04/20 16:34:12;;;;;;;10.20;4.80;;;14.50;76.50;;;;;;6224963;22;20012;-88
2022/04/20 16:36:38;;;;;;;6.80;4.30;;;14.40;76.20;;;;;;6224760;22;20012;-91
2022/04/20 16:39:09;;;;;;;7.47;4.77;;;14.40;76.20;;;;;;6276639;22;20340;-92
2022/04/20 16:41:38;;;;;;;6.57;4.13;;;14.30;75.90;;;;;;6224635;22;20043;-92
2022/04/20 16:44:04;;;;;;;7.82;4.28;;;14.30;76.00;;;;;;6224581;22;20110;-91
2022/04/20 16:46:29;;;;;;;6.43;4.30;;;14.30;76.50;;;;;;6225363;22;20039;-90
2022/04/20 16:48:55;;;;;;;7.43;4.10;;;14.20;76.30;;;;;;6226076;22;20016;-90
2022/04/20 16:51:21;;;;;;;7.22;4.50;;;14.20;76.30;;;;;;6226027;22;20254;-87
2022/04/20 16:53:47;;;;;;;8.27;4.70;;;14.10;76.40;;;;;;6226189;22;20036;-87
2022/04/20 16:56:12;;;;;;;7.90;4.93;;;14.10;76.50;;;;;;6250726;22;20023;-91
2022/04/20 16:58:38;;;;;;;7.27;4.67;;;14.10;76.50;;;;;;6220909;23;20723;-86
2022/04/20 17:01:04;;;;;;;7.30;5.00;;;14.00;76.70;;;;;;6246317;23;20153;-88
2022/04/20 17:03:31;;;;;;;9.23;5.20;;;14.00;76.30;;;;;;6221027;23;20811;-88
2022/04/20 17:05:57;;;;;;;8.25;5.03;;;14.00;76.50;;;;;;6221124;23;20377;-86
2022/04/20 17:08:23;;;;;;;7.95;5.07;;;13.90;76.70;;;;;;6220833;23;20026;-88
2022/04/20 17:10:49;;;;;;;8.27;4.90;;;13.90;76.90;;;;;;6220676;23;20023;-87
2022/04/20 17:13:14;;;;;;;9.13;4.40;;;13.90;77.50;;;;;;6246179;23;20020;-87
2022/04/20 17:15:40;;;;;;;6.50;3.77;;;13.90;77.80;;;;;;6220809;23;20016;-87
2022/04/20 17:18:06;;;;;;;8.05;4.22;;;13.80;77.80;;;;;;6245920;23;20342;-88
2022/04/20 17:28:48;;;;;;;7.18;3.60;;;13.70;78.10;;;;;;6245810;23;20082;-87
2022/04/20 17:31:14;;;;;;;6.80;3.13;;;13.60;78.80;;;;;;6220680;23;20022;-88
2022/04/20 17:33:41;;;;;;;5.45;3.05;;;13.60;78.50;;;;;;6245994;23;20023;-89
2022/04/20 17:38:51;;;;;;;5.10;2.92;;;13.50;78.90;;;;;;6245669;23;20020;-87
2022/04/20 17:41:17;;;;;;;6.13;2.80;;;13.40;79.30;;;;;;6245856;23;20043;-87
2022/04/20 17:43:43;;;;;;;5.70;2.87;;;13.40;79.60;;;;;;6245773;23;20019;-88
2022/04/20 17:46:08;;;;;;;4.88;2.60;;;13.30;79.70;;;;;;6220246;23;20012;-85
2022/04/20 17:48:34;;;;;;;4.90;2.60;;;13.20;79.90;;;;;;6245293;23;20353;-88
2022/04/20 17:51:01;;;;;;;6.13;2.20;;;13.20;80.20;;;;;;6220156;23;20016;-85
2022/04/20 17:53:27;;;;;;;5.97;2.30;;;13.00;80.20;;;;;;6245403;23;20449;-84
2022/04/20 17:55:53;;;;;;;5.10;2.60;;;13.00;80.40;;;;;;6245272;23;20027;-85
2022/04/20 17:58:18;;;;;;;5.50;2.53;;;12.80;80.60;;;;;;6271261;22;20074;-85
2022/04/20 18:00:44;;;;;;;4.33;2.40;;;12.80;81.00;;;;;;6250249;22;20019;-85
2022/04/20 18:03:10;;;;;;;6.33;2.00;;;12.70;81.20;;;;;;6250916;22;20024;-86
2022/04/20 18:05:35;;;;;;;5.07;2.43;;;12.70;81.60;;;;;;6226124;22;20251;-86
2022/04/20 18:08:01;;;;;;;4.97;2.20;;;12.60;82.00;;;;;;6250254;22;20020;-85
2022/04/20 18:10:27;;;;;;;5.70;2.03;;;12.60;82.30;;;;;;6277908;22;20022;-85
2022/04/20 18:12:53;;;;;;;4.03;1.90;;;12.50;82.50;;;;;;6250702;22;20073;-85
2022/04/20 18:15:18;;;;;;;4.30;2.10;;;12.40;82.60;;;;;;6250215;22;20019;-85
2022/04/20 18:17:44;;;;;;;5.23;2.40;;;12.40;82.90;;;;;;6224929;22;20695;-88
2022/04/20 18:20:11;;;;;;;4.53;1.77;;;12.30;83.00;;;;;;6225091;22;20114;-86
2022/04/20 18:22:38;;;;;;;4.22;1.88;;;12.30;83.10;;;;;;6250487;22;20015;-86
2022/04/20 18:25:04;;;;;;;6.15;2.15;;;12.20;83.20;;;;;;6225111;22;20056;-88
2022/04/20 18:27:30;;;;;;;;;;;12.10;83.20;;;;;;6225685;22;20073;-88
2022/04/20 18:29:56;;;;;;;5.00;2.38;;;12.10;83.20;;;;;;6224991;22;19915;-87
2022/04/20 18:32:22;;;;;;;3.70;1.90;;;12.10;83.50;;;;;;6225031;22;20016;-86
2022/04/20 18:34:47;;;;;;;4.57;2.08;;;12.00;83.80;;;;;;6223183;22;20026;-87
2022/04/20 18:37:15;;;;;;;4.10;1.80;;;11.90;84.00;;;;;;6222386;22;20020;-87
2022/04/20 18:39:41;;;;;;;4.75;2.33;;;11.90;84.20;;;;;;6222941;22;20344;-90
2022/04/20 18:42:06;;;;;;;5.53;2.30;;;11.80;84.60;;;;;;6224015;22;20012;-89
2022/04/20 18:44:33;;;;;;;5.40;2.40;;;11.80;85.10;;;;;;6250092;22;20050;-86
2022/04/20 18:46:59;;;;;;;6.65;2.13;;;11.70;85.70;;;;;;6224745;22;20019;-88
2022/04/20 18:49:25;;;;;;;6.50;2.28;;;11.60;86.20;;;;;;6224061;22;20056;-89
2022/04/20 18:51:51;;;;;;;5.33;3.30;;;11.50;87.00;;;;;;6250144;22;20016;-88
2022/04/20 18:59:49;;;;;;;5.25;2.60;;;11.30;89.30;;;;;;6246081;22;20048;-91
2022/04/20 19:02:15;;;;;;;6.40;2.60;;;11.20;89.90;;;;;;6195025;23;20024;-91
2022/04/20 19:04:47;;;;;;;6.95;3.42;;;11.10;90.20;;;;;;6194992;23;20011;-94
2022/04/20 19:07:14;;;;;;;6.15;3.33;;;11.10;90.60;;;;;;6195038;23;20020;-90
2022/04/20 19:09:40;;;;;;;4.90;2.60;;;11.00;90.70;;;;;;6194864;23;20048;-88
2022/04/20 19:12:06;;;;;;;5.60;2.90;;;10.90;90.70;;;;;;6220059;23;20020;-89
2022/04/20 19:14:32;;;;;;;5.43;2.40;;;10.90;90.50;;;;;;6194728;22;20008;-90
2022/04/20 19:16:58;;;;;;;5.15;2.05;;;10.90;90.50;;;;;;6194789;22;20024;-89
2022/04/20 19:19:25;;;;;;;5.32;2.53;;;10.80;90.30;;;;;;6194000;22;20369;-90
2022/04/20 19:22:06;;;;;;;;;;;10.80;90.30;;;;;;6195007;23;20019;-89
2022/04/20 19:24:31;;;;;;;4.53;2.00;;;10.70;90.10;;;;;;6194654;22;20082;-90
2022/04/20 19:26:57;;;;;;;4.17;2.10;;;10.70;90.30;;;;;;6194785;22;20112;-90
2022/04/20 19:29:25;;;;;;;4.90;2.17;;;10.60;90.30;;;;;;6194708;22;20453;-89
2022/04/20 19:31:52;;;;;;;4.72;2.75;;;10.60;90.50;;;;;;6219938;22;20016;-90